createdAt,value
2022-08-25T00:00:22.578Z,2.95
2022-08-25T00:02:55.144Z,5.40
2022-08-25T00:05:27.751Z,6.25
2022-08-25T00:07:58.073Z,3.40
2022-08-25T00:10:26.516Z,4.00
2022-08-25T00:12:54.935Z,7.05
2022-08-25T00:15:23.961Z,6.70
2022-08-25T00:17:52.664Z,4.50
2022-08-25T00:20:22.904Z,4.18
2022-08-25T00:22:51.810Z,6.75
2022-08-25T00:25:20.371Z,3.63
2022-08-25T00:27:49.829Z,6.05
2022-08-25T00:30:18.585Z,6.70
2022-08-25T00:32:55.164Z,4.53
2022-08-25T00:35:26.420Z,3.85
2022-08-25T00:37:55.546Z,6.17
2022-08-25T00:40:26.278Z,3.50
2022-08-25T00:42:56.087Z,3.38
2022-08-25T00:45:25.432Z,4.28
2022-08-25T00:47:53.976Z,5.60
2022-08-25T00:50:26.761Z,7.07
2022-08-25T00:52:59.103Z,5.28
2022-08-25T00:55:39.803Z,3.85
2022-08-25T00:58:14.600Z,5.43
2022-08-25T01:00:50.982Z,6.35
2022-08-25T01:03:20.573Z,8.70
2022-08-25T01:05:56.989Z,4.65
2022-08-25T01:08:28.949Z,4.43
2022-08-25T01:11:03.033Z,3.65
2022-08-25T01:13:45.275Z,3.40
2022-08-25T01:16:16.330Z,3.60
2022-08-25T01:18:56.462Z,7.07
2022-08-25T01:21:25.636Z,7.70
2022-08-25T01:23:58.300Z,7.60
2022-08-25T01:26:32.806Z,4.85
2022-08-25T01:29:22.766Z,3.88
2022-08-25T01:32:03.827Z,2.90
2022-08-25T01:34:36.613Z,6.22
2022-08-25T01:37:05.792Z,4.82
2022-08-25T01:39:36.824Z,4.85
2022-08-25T01:42:11.672Z,7.20
2022-08-25T01:44:43.705Z,5.78
2022-08-25T01:47:13.825Z,4.65
2022-08-25T01:49:42.411Z,5.27
2022-08-25T01:52:16.927Z,4.25
2022-08-25T01:54:45.478Z,5.82
2022-08-25T01:57:13.870Z,7.50
2022-08-25T01:59:42.543Z,4.22
2022-08-25T02:02:11.012Z,2.65
2022-08-25T02:04:44.375Z,3.80
2022-08-25T02:07:13.225Z,3.83
2022-08-25T02:09:41.617Z,6.20
2022-08-25T02:12:09.980Z,7.00
2022-08-25T02:14:38.552Z,3.85
2022-08-25T02:17:07.076Z,4.35
2022-08-25T02:19:38.003Z,5.30
2022-08-25T02:22:06.506Z,4.28
2022-08-25T02:24:35.120Z,4.80
2022-08-25T02:27:05.240Z,4.25
2022-08-25T02:29:33.929Z,7.07
2022-08-25T02:32:03.227Z,5.82
2022-08-25T02:34:31.874Z,7.85
2022-08-25T02:37:00.254Z,5.82
2022-08-25T02:39:28.571Z,4.60
2022-08-25T02:41:57.287Z,7.32
2022-08-25T02:44:25.715Z,5.90
2022-08-25T02:46:54.209Z,3.95
2022-08-25T02:49:22.513Z,3.92
2022-08-25T02:51:50.943Z,5.30
2022-08-25T02:54:19.204Z,3.72
2022-08-25T02:56:48.622Z,4.75
2022-08-25T02:59:18.173Z,4.57
2022-08-25T03:01:46.899Z,3.13
2022-08-25T03:04:15.235Z,6.07
2022-08-25T03:06:44.233Z,7.00
2022-08-25T03:09:13.702Z,5.45
2022-08-25T03:11:42.024Z,8.88
2022-08-25T03:14:11.086Z,6.93
2022-08-25T03:16:40.518Z,5.93
2022-08-25T03:19:11.363Z,3.47
2022-08-25T03:21:40.140Z,5.40
2022-08-25T03:24:08.626Z,4.00
2022-08-25T03:26:55.933Z,7.40
2022-08-25T03:29:31.224Z,8.85
2022-08-25T03:32:00.915Z,8.45
2022-08-25T03:34:30.700Z,5.00
2022-08-25T03:36:59.789Z,5.40
2022-08-25T03:39:29.148Z,6.40
2022-08-25T03:41:59.407Z,5.68
2022-08-25T03:44:27.790Z,6.68
2022-08-25T03:46:56.121Z,5.95
2022-08-25T03:49:24.703Z,4.00
2022-08-25T03:51:54.912Z,7.00
2022-08-25T03:54:25.806Z,6.10
2022-08-25T03:56:54.985Z,5.60
2022-08-25T03:59:23.597Z,10.85
2022-08-25T04:01:55.164Z,4.32
2022-08-25T04:04:24.427Z,6.78
2022-08-25T04:06:53.148Z,9.88
2022-08-25T04:09:22.077Z,13.48
2022-08-25T04:11:53.206Z,5.18
2022-08-25T04:14:23.599Z,6.35
2022-08-25T04:16:53.178Z,5.35
2022-08-25T04:19:22.106Z,5.37
2022-08-25T04:21:51.821Z,8.05
2022-08-25T04:24:25.210Z,4.22
2022-08-25T04:26:53.741Z,6.80
2022-08-25T04:29:24.585Z,8.02
2022-08-25T04:31:54.678Z,5.07
2022-08-25T04:34:30.601Z,9.57
2022-08-25T04:37:02.549Z,6.78
2022-08-25T04:39:31.405Z,9.93
2022-08-25T04:42:02.900Z,6.97
2022-08-25T04:44:32.049Z,9.27
2022-08-25T04:47:02.014Z,5.07
2022-08-25T04:49:32.736Z,6.13
2022-08-25T04:52:01.145Z,5.57
2022-08-25T04:54:29.527Z,11.80
2022-08-25T04:57:05.786Z,5.25
2022-08-25T04:59:34.247Z,7.03
2022-08-25T05:02:03.403Z,6.15
2022-08-25T05:04:34.858Z,8.68
2022-08-25T05:07:04.363Z,8.77
2022-08-25T05:09:33.076Z,6.53
2022-08-25T05:12:02.777Z,5.78
2022-08-25T05:14:32.559Z,10.82
2022-08-25T05:17:01.117Z,8.52
2022-08-25T05:19:29.966Z,9.45
2022-08-25T05:21:59.113Z,9.13
2022-08-25T05:24:28.317Z,8.60
2022-08-25T05:26:57.377Z,6.68
2022-08-25T05:29:26.193Z,11.77
2022-08-25T05:31:54.678Z,10.35
2022-08-25T05:34:23.201Z,8.23
2022-08-25T05:36:51.683Z,11.40
2022-08-25T05:39:20.355Z,8.30
2022-08-25T05:41:48.743Z,11.80
2022-08-25T05:44:20.944Z,11.13
2022-08-25T05:46:50.249Z,5.80
2022-08-25T05:49:19.245Z,12.05
2022-08-25T05:51:47.824Z,8.18
2022-08-25T05:54:16.309Z,7.05
2022-08-25T05:56:45.679Z,10.82
2022-08-25T05:59:14.096Z,7.15
2022-08-25T06:02:01.145Z,11.55
2022-08-25T06:04:29.548Z,9.35
2022-08-25T06:06:57.949Z,8.55
2022-08-25T06:09:26.559Z,12.00
2022-08-25T06:11:55.571Z,8.52
2022-08-25T06:14:25.800Z,7.03
2022-08-25T06:16:54.532Z,9.00
2022-08-25T06:19:23.652Z,7.85
2022-08-25T06:21:57.404Z,8.70
2022-08-25T06:24:27.045Z,8.40
2022-08-25T06:26:56.797Z,10.68
2022-08-25T06:29:27.052Z,11.10
2022-08-25T06:31:55.529Z,7.85
2022-08-25T06:34:24.466Z,9.63
2022-08-25T06:36:53.310Z,11.57
2022-08-25T06:39:22.397Z,10.52
2022-08-25T06:41:55.384Z,14.55
2022-08-25T06:44:27.809Z,9.02
2022-08-25T06:46:56.270Z,11.00
2022-08-25T06:49:28.728Z,8.95
2022-08-25T06:51:58.419Z,9.32
2022-08-25T06:54:26.702Z,7.10
2022-08-25T06:56:55.025Z,12.63
2022-08-25T06:59:23.519Z,13.32
2022-08-25T07:01:52.336Z,11.68
2022-08-25T07:04:22.051Z,8.05
2022-08-25T07:06:50.701Z,11.18
2022-08-25T07:09:19.543Z,8.40
2022-08-25T07:11:48.166Z,10.70
2022-08-25T07:14:18.339Z,15.05
2022-08-25T07:16:50.265Z,9.07
2022-08-25T07:19:21.016Z,11.95
2022-08-25T07:21:52.360Z,10.98
2022-08-25T07:24:21.895Z,16.48
2022-08-25T07:26:51.697Z,10.00
2022-08-25T07:29:32.341Z,14.15
2022-08-25T07:32:02.418Z,12.88
2022-08-25T07:34:52.327Z,14.20
2022-08-25T07:40:33.631Z,13.10
2022-08-25T07:43:06.224Z,12.27
2022-08-25T07:45:37.632Z,11.07
2022-08-25T07:48:14.114Z,8.82
2022-08-25T07:50:48.405Z,9.90
2022-08-25T07:53:17.123Z,10.77
2022-08-25T07:55:47.138Z,10.55
2022-08-25T07:58:15.916Z,11.57
2022-08-25T08:00:48.103Z,11.13
2022-08-25T08:03:35.264Z,13.23
2022-08-25T08:06:09.800Z,17.92
2022-08-25T08:08:44.544Z,12.75
2022-08-25T08:11:17.532Z,12.25
2022-08-25T08:13:48.431Z,13.88
2022-08-25T08:16:20.585Z,12.10
2022-08-25T08:18:50.005Z,11.50
2022-08-25T08:21:32.320Z,13.93
2022-08-25T08:24:02.050Z,11.07
2022-08-25T08:26:55.472Z,20.60
2022-08-25T08:29:23.239Z,10.10
2022-08-25T08:31:51.649Z,8.52
2022-08-25T08:34:24.977Z,13.75
2022-08-25T08:36:53.795Z,9.27
2022-08-25T08:39:23.238Z,8.70
2022-08-25T08:42:29.605Z,15.10
2022-08-25T08:45:28.811Z,14.40
2022-08-25T08:48:10.196Z,16.60
2022-08-25T08:51:10.946Z,11.63
2022-08-25T08:53:57.299Z,7.75
2022-08-25T08:56:30.801Z,10.23
2022-08-25T08:59:05.769Z,11.90
2022-08-25T09:02:00.484Z,13.13
2022-08-25T09:04:48.560Z,12.23
2022-08-25T09:07:27.800Z,12.95
2022-08-25T09:09:57.987Z,12.10
2022-08-25T09:12:40.862Z,10.85
2022-08-25T09:15:20.718Z,14.45
2022-08-25T09:18:16.168Z,14.10
2022-08-25T09:20:59.829Z,15.32
2022-08-25T09:23:33.983Z,13.63
2022-08-25T09:26:36.157Z,12.57
2022-08-25T09:29:17.259Z,9.57
2022-08-25T09:31:48.490Z,9.85
2022-08-25T09:34:20.726Z,13.77
2022-08-25T09:36:52.883Z,8.68
2022-08-25T09:39:23.422Z,8.80
2022-08-25T09:41:59.167Z,16.90
2022-08-25T09:44:33.760Z,10.65
2022-08-25T09:47:08.179Z,13.43
2022-08-25T09:49:43.247Z,11.45
2022-08-25T09:52:27.314Z,12.55
2022-08-25T09:54:58.103Z,8.30
2022-08-25T09:57:36.357Z,7.95
2022-08-25T10:00:21.736Z,10.30
2022-08-25T10:03:05.908Z,12.88
2022-08-25T10:05:39.390Z,11.20
2022-08-25T10:08:24.773Z,8.38
2022-08-25T10:10:57.399Z,12.90
2022-08-25T10:13:49.890Z,9.02
2022-08-25T10:16:30.837Z,8.20
2022-08-25T10:19:21.306Z,8.68
2022-08-25T10:22:10.869Z,5.63
2022-08-25T10:24:43.971Z,5.72
2022-08-25T10:27:38.040Z,7.10
2022-08-25T10:30:28.029Z,8.50
2022-08-25T10:33:15.174Z,11.93
2022-08-25T10:36:23.584Z,4.82
2022-08-25T10:39:01.599Z,11.45
2022-08-25T10:41:54.337Z,6.55
2022-08-25T10:44:57.235Z,7.28
2022-08-25T10:47:31.821Z,5.55
2022-08-25T10:50:29.589Z,7.25
2022-08-25T10:53:21.225Z,6.72
2022-08-25T10:56:10.289Z,7.85
2022-08-25T10:58:57.039Z,8.27
2022-08-25T11:01:46.989Z,6.53
2022-08-25T11:04:48.597Z,4.25
2022-08-25T11:07:25.321Z,8.63
2022-08-25T11:10:00.019Z,8.13
2022-08-25T11:12:35.878Z,5.63
2022-08-25T11:15:11.154Z,9.60
2022-08-25T11:18:02.664Z,6.32
2022-08-25T11:21:01.992Z,5.60
2022-08-25T11:23:39.065Z,6.30
2022-08-25T11:26:17.774Z,5.40
2022-08-25T11:28:57.579Z,8.43
2022-08-25T11:31:28.328Z,8.90
2022-08-25T11:33:58.987Z,8.30
2022-08-25T11:36:32.544Z,7.88
2022-08-25T11:39:34.389Z,6.20
2022-08-25T11:42:43.346Z,6.97
2022-08-25T11:45:27.019Z,8.95
2022-08-25T11:48:24.579Z,5.47
2022-08-25T11:51:00.736Z,6.22
2022-08-25T11:53:33.514Z,7.97
2022-08-25T11:56:06.639Z,7.60
2022-08-25T11:58:50.076Z,6.70
2022-08-25T12:01:40.561Z,6.63
2022-08-25T12:04:44.386Z,5.55
2022-08-25T12:07:26.214Z,8.05
2022-08-25T12:09:54.574Z,5.53
2022-08-25T12:12:58.864Z,4.60
2022-08-25T12:15:42.887Z,6.00
2022-08-25T12:18:24.498Z,5.53
2022-08-25T12:20:52.794Z,5.35
2022-08-25T12:23:46.405Z,5.25
2022-08-25T12:26:34.520Z,5.32
2022-08-25T12:29:16.700Z,4.80
2022-08-25T12:31:57.499Z,6.78
2022-08-25T12:34:45.183Z,8.75
2022-08-25T12:37:13.938Z,5.93
2022-08-25T12:39:58.671Z,4.03
2022-08-25T12:42:29.967Z,4.85
2022-08-25T12:45:14.963Z,6.63
2022-08-25T12:47:47.701Z,4.95
2022-08-25T12:50:27.521Z,7.60
2022-08-25T12:53:07.579Z,5.75
2022-08-25T12:58:07.530Z,5.25
2022-08-25T13:01:33.110Z,8.45
2022-08-25T13:07:04.859Z,5.38
2022-08-25T13:09:58.867Z,7.05
2022-08-25T13:13:04.619Z,3.60
2022-08-25T13:15:42.564Z,4.97
2022-08-25T13:18:22.617Z,7.88
2022-08-25T13:21:04.455Z,6.55
2022-08-25T13:23:37.941Z,8.63
2022-08-25T13:26:06.735Z,8.75
2022-08-25T13:28:40.841Z,5.65
2022-08-25T13:31:22.142Z,4.20
2022-08-25T13:36:58.258Z,5.43
2022-08-25T13:39:52.683Z,5.22
2022-08-25T13:42:17.542Z,8.27
2022-08-25T13:44:51.773Z,7.80
2022-08-25T13:48:02.961Z,5.53
2022-08-25T13:50:39.772Z,9.43
2022-08-25T13:53:21.477Z,4.85
2022-08-25T13:56:02.309Z,8.15
2022-08-25T13:58:45.027Z,7.30
2022-08-25T14:01:45.024Z,8.88
2022-08-25T14:04:26.943Z,5.93
2022-08-25T14:07:08.473Z,6.63
2022-08-25T14:09:48.329Z,6.45
2022-08-25T14:12:39.681Z,3.65
2022-08-25T14:15:29.647Z,6.30
2022-08-25T14:18:09.622Z,5.20
2022-08-25T14:20:50.789Z,5.40
2022-08-25T14:23:27.054Z,6.15
2022-08-25T14:25:57.962Z,5.40
2022-08-25T14:28:29.373Z,4.97
2022-08-25T14:31:10.071Z,6.50
2022-08-25T14:33:55.818Z,3.95
2022-08-25T14:36:25.037Z,6.30
2022-08-25T14:38:55.057Z,4.57
2022-08-25T14:41:24.801Z,6.28
2022-08-25T14:43:53.825Z,10.35
2022-08-25T14:46:25.097Z,6.00
2022-08-25T14:48:59.717Z,6.90
2022-08-25T14:51:29.678Z,3.80
2022-08-25T14:54:02.767Z,6.28
2022-08-25T14:56:32.622Z,3.75
2022-08-25T14:59:01.774Z,3.05
2022-08-25T15:01:30.346Z,4.60
2022-08-25T15:04:06.839Z,7.50
2022-08-25T15:06:38.747Z,10.15
2022-08-25T15:09:17.199Z,5.38
2022-08-25T15:11:50.578Z,3.63
2022-08-25T15:14:29.033Z,5.18
2022-08-25T15:17:02.690Z,3.33
2022-08-25T15:19:31.591Z,3.38
2022-08-25T15:22:00.370Z,7.90
2022-08-25T15:24:29.437Z,5.47
2022-08-25T15:27:00.807Z,3.92
2022-08-25T15:29:31.923Z,7.32
2022-08-25T15:32:01.753Z,4.22
2022-08-25T15:34:31.000Z,4.00
2022-08-25T15:37:08.528Z,4.70
2022-08-25T15:39:38.869Z,7.10
2022-08-25T15:44:35.881Z,7.30
2022-08-25T15:47:05.799Z,5.65
2022-08-25T15:49:35.253Z,3.07
2022-08-25T15:52:04.280Z,8.80
2022-08-25T15:54:33.242Z,7.70
2022-08-25T15:57:01.702Z,4.38
2022-08-25T15:59:30.594Z,6.40
2022-08-25T16:02:00.434Z,7.00
2022-08-25T16:04:29.502Z,5.88
2022-08-25T16:06:58.330Z,10.23
2022-08-25T16:09:27.118Z,8.47
2022-08-25T16:11:57.068Z,4.30
2022-08-25T16:14:27.584Z,5.78
2022-08-25T16:19:31.544Z,3.53
2022-08-25T16:22:00.685Z,4.53
2022-08-25T16:24:29.118Z,5.03
2022-08-25T16:27:10.895Z,6.93
2022-08-25T16:29:44.045Z,8.32
2022-08-25T16:32:14.244Z,5.43
2022-08-25T16:37:14.322Z,5.85
2022-08-25T16:39:46.118Z,6.03
2022-08-25T16:42:14.757Z,4.63
2022-08-25T16:44:43.837Z,5.57
2022-08-25T16:47:14.454Z,7.47
2022-08-25T16:49:46.880Z,4.68
2022-08-25T16:52:34.365Z,5.10
2022-08-25T16:55:16.386Z,7.88
2022-08-25T16:57:48.213Z,8.52
2022-08-25T17:00:24.078Z,11.75
2022-08-25T17:02:59.459Z,6.25
2022-08-25T17:05:29.365Z,8.65
2022-08-25T17:08:30.828Z,4.15
2022-08-25T17:11:05.877Z,6.18
2022-08-25T17:13:36.645Z,10.18
2022-08-25T17:16:07.463Z,5.63
2022-08-25T17:18:36.238Z,4.68
2022-08-25T17:21:11.091Z,7.72
2022-08-25T17:23:44.998Z,5.35
2022-08-25T17:26:17.201Z,4.40
2022-08-25T17:28:46.246Z,5.47
2022-08-25T17:31:15.762Z,9.13
2022-08-25T17:33:45.627Z,8.20
2022-08-25T17:36:17.090Z,4.90
2022-08-25T17:38:46.333Z,11.05
2022-08-25T17:41:15.020Z,7.10
2022-08-25T17:43:46.379Z,6.07
2022-08-25T17:46:15.325Z,6.07
2022-08-25T17:48:44.079Z,6.68
2022-08-25T17:51:13.052Z,5.38
2022-08-25T17:53:44.501Z,7.25
2022-08-25T17:56:18.551Z,8.77
2022-08-25T17:58:47.359Z,11.05
2022-08-25T18:01:24.944Z,6.32
2022-08-25T18:03:54.444Z,5.78
2022-08-25T18:06:26.267Z,7.05
2022-08-25T18:08:59.928Z,6.68
2022-08-25T18:11:30.143Z,10.50
2022-08-25T18:13:59.562Z,8.07
2022-08-25T18:16:30.350Z,9.37
2022-08-25T18:18:58.938Z,11.38
2022-08-25T18:21:30.562Z,10.18
2022-08-25T18:23:59.387Z,8.27
2022-08-25T18:26:28.289Z,7.00
2022-08-25T18:28:56.679Z,8.05
2022-08-25T18:31:25.542Z,7.45
2022-08-25T18:33:54.098Z,6.45
2022-08-25T18:36:22.572Z,12.25
2022-08-25T18:39:10.121Z,7.68
2022-08-25T18:41:41.328Z,7.18
2022-08-25T18:44:11.013Z,8.15
2022-08-25T18:46:40.207Z,6.50
2022-08-25T18:49:08.698Z,10.32
2022-08-25T18:51:37.699Z,10.40
2022-08-25T18:54:06.277Z,8.68
2022-08-25T18:56:35.014Z,11.25
2022-08-25T18:59:04.753Z,11.23
2022-08-25T19:01:36.587Z,11.15
2022-08-25T19:06:33.339Z,12.27
2022-08-25T19:09:02.122Z,8.35
2022-08-25T19:11:31.248Z,12.90
2022-08-25T19:14:00.998Z,14.88
2022-08-25T19:16:38.727Z,11.83
2022-08-25T19:19:09.242Z,12.90
2022-08-25T19:21:38.658Z,10.65
2022-08-25T19:24:08.976Z,8.93
2022-08-25T19:29:10.342Z,7.95
2022-08-25T19:31:39.741Z,10.13
2022-08-25T19:34:13.786Z,9.33
2022-08-25T19:36:43.901Z,8.98
2022-08-25T19:39:14.268Z,14.45
2022-08-25T19:41:46.494Z,11.60
2022-08-25T19:44:15.109Z,11.43
2022-08-25T19:46:45.306Z,9.82
2022-08-25T19:49:18.259Z,9.55
2022-08-25T19:51:51.553Z,9.13
2022-08-25T19:54:25.103Z,14.30
2022-08-25T19:56:55.612Z,10.05
2022-08-25T19:59:40.479Z,10.30
2022-08-25T20:02:16.827Z,7.70
2022-08-25T20:04:51.145Z,9.05
2022-08-25T20:07:22.976Z,12.68
2022-08-25T20:09:53.631Z,11.43
2022-08-25T20:12:24.248Z,14.75
2022-08-25T20:14:56.110Z,8.10
2022-08-25T20:17:28.343Z,9.45
2022-08-25T20:20:04.851Z,10.30
2022-08-25T20:22:33.859Z,7.32
2022-08-25T20:25:13.139Z,7.65
2022-08-25T20:27:54.708Z,8.10
2022-08-25T20:30:27.537Z,11.10
2022-08-25T20:32:57.350Z,8.93
2022-08-25T20:35:27.797Z,7.95
2022-08-25T20:37:58.294Z,11.63
2022-08-25T20:43:03.094Z,10.87
2022-08-25T20:45:32.022Z,9.30
2022-08-25T20:48:00.444Z,9.02
2022-08-25T20:50:28.819Z,10.10
2022-08-25T20:52:58.744Z,11.77
2022-08-25T20:55:28.888Z,12.18
2022-08-25T20:57:57.294Z,9.90
2022-08-25T21:00:26.075Z,7.78
2022-08-25T21:02:57.239Z,12.40
2022-08-25T21:05:25.702Z,13.85
2022-08-25T21:07:54.810Z,9.57
2022-08-25T21:10:23.090Z,9.43
2022-08-25T21:12:53.464Z,10.23
2022-08-25T21:15:22.295Z,10.63
2022-08-25T21:17:54.462Z,10.77
2022-08-25T21:20:24.803Z,7.63
2022-08-25T21:22:54.918Z,14.70
2022-08-25T21:25:23.779Z,10.60
2022-08-25T21:27:52.514Z,9.38
2022-08-25T21:30:21.256Z,8.90
2022-08-25T21:32:53.031Z,9.63
2022-08-25T21:35:27.133Z,8.68
2022-08-25T21:37:55.491Z,10.70
2022-08-25T21:40:24.065Z,9.75
2022-08-25T21:42:52.726Z,7.35
2022-08-25T21:45:21.846Z,9.80
2022-08-25T21:47:52.001Z,9.68
2022-08-25T21:50:22.364Z,12.95
2022-08-25T21:52:54.336Z,8.93
2022-08-25T21:55:24.050Z,13.50
2022-08-25T21:57:53.123Z,9.07
2022-08-25T22:00:22.747Z,12.43
2022-08-25T22:02:51.599Z,11.35
2022-08-25T22:05:20.029Z,7.63
2022-08-25T22:07:48.621Z,8.40
2022-08-25T22:10:18.217Z,11.45
2022-08-25T22:12:48.213Z,15.75
2022-08-25T22:15:18.022Z,12.35
2022-08-25T22:17:48.183Z,11.43
2022-08-25T22:22:45.552Z,13.60
2022-08-25T22:25:14.489Z,10.85
2022-08-25T22:27:43.119Z,9.35
2022-08-25T22:30:13.858Z,8.30
2022-08-25T22:32:45.732Z,10.68
2022-08-25T22:35:14.351Z,7.97
2022-08-25T22:37:43.357Z,11.13
2022-08-25T22:40:12.695Z,8.77
2022-08-25T22:42:46.083Z,9.70
2022-08-25T22:45:16.915Z,13.65
2022-08-25T22:47:48.792Z,9.35
2022-08-25T22:50:17.497Z,13.93
2022-08-25T22:52:47.719Z,9.02
2022-08-25T22:55:16.546Z,12.55
2022-08-25T22:57:45.188Z,11.02
2022-08-25T23:00:14.877Z,10.15
2022-08-25T23:02:44.801Z,10.55
2022-08-25T23:05:14.955Z,8.93
2022-08-25T23:07:43.543Z,13.80
2022-08-25T23:10:12.489Z,12.60
2022-08-25T23:12:42.655Z,10.50
2022-08-25T23:15:12.970Z,12.75
2022-08-25T23:17:42.663Z,15.00
2022-08-25T23:20:29.642Z,13.82
2022-08-25T23:22:59.317Z,13.02
2022-08-25T23:25:27.657Z,16.75
2022-08-25T23:27:56.486Z,10.00
2022-08-25T23:30:27.562Z,25.92
2022-08-25T23:32:56.068Z,13.45
2022-08-25T23:35:24.642Z,10.27
2022-08-25T23:37:52.997Z,9.63
2022-08-25T23:40:21.709Z,14.77
2022-08-25T23:42:51.333Z,15.32
2022-08-25T23:45:19.848Z,15.82
2022-08-25T23:47:49.652Z,9.25
2022-08-25T23:50:18.537Z,14.45
2022-08-25T23:52:47.688Z,12.60
2022-08-25T23:55:16.050Z,12.15
2022-08-25T23:57:45.059Z,12.23
